Time;durP1;ratioP1;P1;durP2;ratioP2;P2;SDS_P1;SDS_P2;PMS_P1;PMS_P2;Temp;Humidity;BMP_temperature;BMP_pressure;BME280_temperature;BME280_humidity;BME280_pressure;Samples;Min_cycle;Max_cycle;Signal;HPM_P1;HPM_P2
2023/02/28 00:00:10;;;;;;;1.63;0.77;;;;;;;;;;5006157;28;20033;-76
2023/02/28 00:02:43;;;;;;;2.17;0.80;;;;;;;;;;5025309;28;20029;-75
2023/02/28 00:05:10;;;;;;;2.00;1.00;;;;;;;;;;5032361;28;20044;-75
2023/02/28 00:07:35;;;;;;;6.40;1.35;;;;;;;;;;5014587;28;21622;-75
2023/02/28 00:10:01;;;;;;;4.05;1.00;;;;;;;;;;5015272;28;20030;-75
2023/02/28 00:12:27;;;;;;;1.80;0.85;;;;;;;;;;5016008;28;20045;-75
2023/02/28 00:14:52;;;;;;;5.15;1.10;;;;;;;;;;5027327;28;20422;-75
2023/02/28 00:17:20;;;;;;;4.00;1.13;;;;;;;;;;5016936;28;20073;-75
2023/02/28 00:19:50;;;;;;;2.83;1.15;;;;;;;;;;5013612;28;20061;-75
2023/02/28 00:22:17;;;;;;;4.47;1.35;;;;;;;;;;5015779;28;20059;-75
2023/02/28 00:24:43;;;;;;;2.85;1.10;;;;;;;;;;5010165;28;20397;-75
2023/02/28 00:27:09;;;;;;;6.38;1.13;;;;;;;;;;5014021;28;20041;-75
2023/02/28 00:29:34;;;;;;;1.83;0.90;;;;;;;;;;5015221;28;20033;-75
2023/02/28 00:32:00;;;;;;;2.70;1.00;;;;;;;;;;5024552;28;20041;-76
2023/02/28 00:34:26;;;;;;;1.70;1.10;;;;;;;;;;5021791;28;20053;-75
2023/02/28 00:36:51;;;;;;;3.60;1.00;;;;;;;;;;5016463;28;20398;-75
2023/02/28 00:39:17;;;;;;;1.33;0.70;;;;;;;;;;5008245;28;20041;-75
2023/02/28 00:41:42;;;;;;;5.80;1.20;;;;;;;;;;5024578;28;20033;-75
2023/02/28 00:44:08;;;;;;;4.20;1.00;;;;;;;;;;5003857;28;20529;-75
2023/02/28 00:46:33;;;;;;;4.57;1.10;;;;;;;;;;5030676;28;20149;-75
2023/02/28 00:48:59;;;;;;;1.73;0.95;;;;;;;;;;5022715;28;20069;-76
2023/02/28 00:51:24;;;;;;;2.70;1.00;;;;;;;;;;5012697;28;20080;-75
2023/02/28 00:53:49;;;;;;;3.78;1.67;;;;;;;;;;5018656;28;20038;-75
2023/02/28 00:56:15;;;;;;;5.53;1.38;;;;;;;;;;5011102;28;20046;-75
2023/02/28 00:58:40;;;;;;;2.35;1.00;;;;;;;;;;5023738;28;20067;-74
2023/02/28 01:01:06;;;;;;;2.00;0.90;;;;;;;;;;5010062;28;20038;-75
2023/02/28 01:03:32;;;;;;;3.00;1.00;;;;;;;;;;4999450;28;20026;-75
2023/02/28 01:05:57;;;;;;;6.53;1.13;;;;;;;;;;5013938;28;20544;-75
2023/02/28 01:08:23;;;;;;;2.30;0.88;;;;;;;;;;5012885;28;20046;-75
2023/02/28 01:10:49;;;;;;;2.97;1.00;;;;;;;;;;5015242;28;20389;-75
2023/02/28 01:13:14;;;;;;;5.03;1.15;;;;;;;;;;5017047;28;20056;-75
2023/02/28 01:15:42;;;;;;;4.22;1.10;;;;;;;;;;5027129;28;20038;-75
2023/02/28 01:18:07;;;;;;;6.82;1.38;;;;;;;;;;5000025;28;20505;-75
2023/02/28 01:20:33;;;;;;;4.68;1.27;;;;;;;;;;5005113;28;20034;-76
2023/02/28 01:22:58;;;;;;;3.30;1.00;;;;;;;;;;5009472;28;20034;-75
2023/02/28 01:25:23;;;;;;;2.03;0.82;;;;;;;;;;5020840;28;20056;-75
2023/02/28 01:27:49;;;;;;;1.30;0.70;;;;;;;;;;5016733;28;20037;-75
2023/02/28 01:30:14;;;;;;;3.53;1.27;;;;;;;;;;5014875;28;20409;-75
2023/02/28 01:32:40;;;;;;;4.45;1.10;;;;;;;;;;5015165;28;20474;-75
2023/02/28 01:35:05;;;;;;;1.90;0.98;;;;;;;;;;5007911;28;20034;-75
2023/02/28 01:37:31;;;;;;;1.48;0.85;;;;;;;;;;5011558;28;20413;-75
2023/02/28 01:39:56;;;;;;;6.55;1.20;;;;;;;;;;5009245;28;20041;-75
2023/02/28 01:42:22;;;;;;;1.15;0.77;;;;;;;;;;5015083;28;20057;-75
2023/02/28 01:45:02;;;;;;;2.70;0.75;;;;;;;;;;5008830;28;20064;-75
2023/02/28 01:47:39;;;;;;;3.42;1.42;;;;;;;;;;5003953;28;20046;-75
2023/02/28 01:50:09;;;;;;;2.50;0.80;;;;;;;;;;5010289;28;20029;-75
2023/02/28 01:52:34;;;;;;;5.15;0.90;;;;;;;;;;5014121;28;20046;-75
2023/02/28 01:55:02;;;;;;;3.38;1.15;;;;;;;;;;5011291;28;20038;-76
2023/02/28 01:57:37;;;;;;;5.45;1.30;;;;;;;;;;5011288;28;20038;-75
2023/02/28 02:00:15;;;;;;;4.90;1.33;;;;;;;;;;5013818;28;20095;-76
2023/02/28 02:02:45;;;;;;;4.60;1.05;;;;;;;;;;5018193;28;20033;-75
2023/02/28 02:05:23;;;;;;;3.70;1.00;;;;;;;;;;5027758;28;20489;-75
2023/02/28 02:07:51;;;;;;;2.83;0.95;;;;;;;;;;5012975;28;20030;-75
2023/02/28 02:10:17;;;;;;;5.53;1.08;;;;;;;;;;5006918;28;20093;-75
2023/02/28 02:12:52;;;;;;;5.63;1.13;;;;;;;;;;5013166;28;20022;-75
2023/02/28 02:15:59;;;;;;;1.55;0.80;;;;;;;;;;5009130;28;20573;-75
2023/02/28 02:18:41;;;;;;;3.75;1.05;;;;;;;;;;5013840;28;20501;-75
2023/02/28 02:21:27;;;;;;;3.80;1.13;;;;;;;;;;5014863;28;20038;-75
2023/02/28 02:23:58;;;;;;;2.10;0.90;;;;;;;;;;5013389;28;20030;-75
2023/02/28 02:26:39;;;;;;;2.95;0.88;;;;;;;;;;5016471;28;20053;-75
2023/02/28 02:32:55;;;;;;;2.10;0.80;;;;;;;;;;5011016;28;20441;-75
2023/02/28 02:36:09;;;;;;;7.13;0.90;;;;;;;;;;5020026;28;20450;-75
2023/02/28 02:38:49;;;;;;;1.83;0.80;;;;;;;;;;5003110;28;20053;-75
2023/02/28 02:41:26;;;;;;;4.32;1.00;;;;;;;;;;5013092;28;20482;-75
2023/02/28 02:44:10;;;;;;;2.60;1.52;;;;;;;;;;5013247;28;20046;-75
2023/02/28 02:46:39;;;;;;;4.13;1.20;;;;;;;;;;5007543;28;20061;-76
2023/02/28 02:49:09;;;;;;;4.60;1.00;;;;;;;;;;5012220;28;20045;-75
2023/02/28 02:51:36;;;;;;;4.50;0.75;;;;;;;;;;5031669;28;20056;-75
2023/02/28 02:54:17;;;;;;;2.63;0.75;;;;;;;;;;5014137;28;20559;-75
2023/02/28 02:56:45;;;;;;;3.42;0.75;;;;;;;;;;5012991;28;20073;-75
2023/02/28 02:59:12;;;;;;;3.55;0.80;;;;;;;;;;5009978;28;20497;-75
2023/02/28 03:01:39;;;;;;;3.33;0.80;;;;;;;;;;5020646;28;20033;-75
2023/02/28 03:04:11;;;;;;;3.80;0.98;;;;;;;;;;5018167;28;20036;-75
2023/02/28 03:06:36;;;;;;;1.98;0.77;;;;;;;;;;5023376;28;20034;-75
2023/02/28 03:09:02;;;;;;;5.40;0.85;;;;;;;;;;5008266;28;20046;-75
2023/02/28 03:11:28;;;;;;;3.53;0.80;;;;;;;;;;5015137;28;20136;-74
2023/02/28 03:14:06;;;;;;;3.22;0.60;;;;;;;;;;5031524;28;20474;-75
2023/02/28 03:16:36;;;;;;;1.52;0.70;;;;;;;;;;5016736;28;20059;-75
2023/02/28 03:19:20;;;;;;;4.90;1.10;;;;;;;;;;5031772;28;20493;-75
2023/02/28 03:22:09;;;;;;;3.08;0.88;;;;;;;;;;5016339;28;20489;-75
2023/02/28 03:25:13;;;;;;;2.78;0.90;;;;;;;;;;5010612;28;20117;-75
2023/02/28 03:28:04;;;;;;;2.15;0.80;;;;;;;;;;5014702;28;20117;-75
2023/02/28 03:30:42;;;;;;;2.63;0.70;;;;;;;;;;5008601;28;20563;-75
2023/02/28 03:33:24;;;;;;;3.28;0.90;;;;;;;;;;5016591;28;20030;-75
2023/02/28 03:35:51;;;;;;;3.38;0.80;;;;;;;;;;5019815;28;20375;-75
2023/02/28 03:38:22;;;;;;;3.28;1.08;;;;;;;;;;5035493;28;20076;-76
2023/02/28 03:40:51;;;;;;;2.13;0.80;;;;;;;;;;5015109;28;20041;-75
2023/02/28 03:43:24;;;;;;;1.67;0.80;;;;;;;;;;5031516;28;20048;-75
2023/02/28 03:45:51;;;;;;;4.18;1.10;;;;;;;;;;5016184;28;20510;-75
2023/02/28 03:48:27;;;;;;;3.63;1.00;;;;;;;;;;5010736;28;20034;-75
2023/02/28 03:50:55;;;;;;;2.08;1.10;;;;;;;;;;5018658;28;20061;-75
2023/02/28 03:53:21;;;;;;;2.90;1.05;;;;;;;;;;5005251;28;20054;-75
2023/02/28 03:56:11;;;;;;;2.75;0.90;;;;;;;;;;5017045;28;20030;-75
2023/02/28 03:58:37;;;;;;;8.20;1.10;;;;;;;;;;5016178;28;20052;-74
2023/02/28 04:01:28;;;;;;;1.80;0.70;;;;;;;;;;5015364;28;20460;-75
2023/02/28 04:03:53;;;;;;;1.55;0.90;;;;;;;;;;5021531;28;20061;-75
2023/02/28 04:06:21;;;;;;;1.85;0.90;;;;;;;;;;5032112;28;20034;-74
2023/02/28 04:08:47;;;;;;;2.22;0.90;;;;;;;;;;5035540;28;20091;-75
2023/02/28 04:11:20;;;;;;;4.93;1.10;;;;;;;;;;5015579;28;20042;-75
2023/02/28 04:13:45;;;;;;;2.78;0.95;;;;;;;;;;5015796;28;20029;-75
2023/02/28 04:16:12;;;;;;;4.63;1.08;;;;;;;;;;5016810;28;20073;-75
2023/02/28 04:18:38;;;;;;;2.85;1.00;;;;;;;;;;5009718;28;20050;-75
2023/02/28 04:21:04;;;;;;;2.10;1.00;;;;;;;;;;5009730;28;20057;-75
2023/02/28 04:23:30;;;;;;;3.28;1.15;;;;;;;;;;5013175;28;20489;-75
2023/02/28 04:25:55;;;;;;;4.30;0.90;;;;;;;;;;5015251;28;20040;-75
2023/02/28 04:28:21;;;;;;;1.92;0.80;;;;;;;;;;5015643;28;20038;-75
2023/02/28 04:30:47;;;;;;;1.65;0.90;;;;;;;;;;5018708;28;20500;-75
2023/02/28 04:33:12;;;;;;;2.13;1.00;;;;;;;;;;5012849;28;20095;-74
2023/02/28 04:35:37;;;;;;;2.30;0.60;;;;;;;;;;5016108;28;20022;-74
2023/02/28 04:38:03;;;;;;;2.03;1.08;;;;;;;;;;5012434;28;20044;-75
2023/02/28 04:40:28;;;;;;;2.15;0.90;;;;;;;;;;5012253;28;20030;-75
2023/02/28 04:42:54;;;;;;;2.75;1.13;;;;;;;;;;5006381;28;20030;-75
2023/02/28 04:45:19;;;;;;;3.00;0.80;;;;;;;;;;5017303;28;20395;-75
2023/02/28 04:47:45;;;;;;;1.35;0.70;;;;;;;;;;5014604;28;20052;-75
2023/02/28 04:50:10;;;;;;;2.88;0.80;;;;;;;;;;5015869;28;20026;-75
2023/02/28 04:52:36;;;;;;;2.05;0.90;;;;;;;;;;5020045;28;20104;-75
2023/02/28 04:55:01;;;;;;;2.67;0.90;;;;;;;;;;5016015;28;20034;-76
2023/02/28 04:57:27;;;;;;;4.50;1.10;;;;;;;;;;5006468;28;20030;-75
2023/02/28 04:59:52;;;;;;;1.70;0.93;;;;;;;;;;5017912;28;20042;-75
2023/02/28 05:02:18;;;;;;;1.92;1.00;;;;;;;;;;5014041;28;20041;-76
2023/02/28 05:04:43;;;;;;;4.47;1.55;;;;;;;;;;5015566;28;20117;-75
2023/02/28 05:07:09;;;;;;;2.78;1.30;;;;;;;;;;5014446;28;20096;-75
2023/02/28 05:09:35;;;;;;;3.47;1.20;;;;;;;;;;5016751;28;20042;-75
2023/02/28 05:12:00;;;;;;;3.22;1.77;;;;;;;;;;5007853;28;20065;-75
2023/02/28 05:14:26;;;;;;;7.22;1.65;;;;;;;;;;5014851;28;20053;-75
2023/02/28 05:16:51;;;;;;;2.63;1.42;;;;;;;;;;5014630;28;20046;-75
2023/02/28 05:19:17;;;;;;;2.70;1.27;;;;;;;;;;5014256;28;20745;-75
2023/02/28 05:21:55;;;;;;;2.60;1.52;;;;;;;;;;5011480;28;20050;-75
2023/02/28 05:24:24;;;;;;;5.13;1.30;;;;;;;;;;5023053;28;20509;-75
2023/02/28 05:26:51;;;;;;;3.78;1.30;;;;;;;;;;5023529;28;20038;-75
2023/02/28 05:29:17;;;;;;;2.10;1.13;;;;;;;;;;5007798;28;20057;-75
2023/02/28 05:31:42;;;;;;;2.97;1.40;;;;;;;;;;5012198;28;20445;-75
2023/02/28 05:34:10;;;;;;;4.90;1.27;;;;;;;;;;5006813;28;20069;-76
2023/02/28 05:36:36;;;;;;;2.83;1.38;;;;;;;;;;5021895;28;20076;-75
2023/02/28 05:39:03;;;;;;;2.83;1.30;;;;;;;;;;5014278;28;20053;-75
2023/02/28 05:41:29;;;;;;;2.95;1.60;;;;;;;;;;5006895;28;20069;-75
2023/02/28 05:43:54;;;;;;;6.43;2.00;;;;;;;;;;5000818;28;20026;-75
2023/02/28 05:46:20;;;;;;;3.00;1.40;;;;;;;;;;5013555;28;20041;-75
2023/02/28 05:48:47;;;;;;;4.82;1.73;;;;;;;;;;5006159;28;20042;-75
2023/02/28 05:51:12;;;;;;;3.40;1.52;;;;;;;;;;5013972;28;20022;-75
2023/02/28 05:53:37;;;;;;;3.20;1.58;;;;;;;;;;5013715;28;20030;-75
2023/02/28 05:56:03;;;;;;;5.18;1.60;;;;;;;;;;5006185;28;20042;-76
2023/02/28 05:58:30;;;;;;;3.20;1.60;;;;;;;;;;5007080;28;20044;-75
2023/02/28 06:00:57;;;;;;;3.47;1.80;;;;;;;;;;5015668;28;20115;-75
2023/02/28 06:03:23;;;;;;;7.55;2.10;;;;;;;;;;5028739;28;20034;-74
2023/02/28 06:05:48;;;;;;;4.13;2.30;;;;;;;;;;5029286;28;20044;-75
2023/02/28 06:08:13;;;;;;;3.72;1.70;;;;;;;;;;5017583;28;20029;-75
2023/02/28 06:10:39;;;;;;;3.00;1.70;;;;;;;;;;5017171;28;20029;-74
2023/02/28 06:13:05;;;;;;;5.82;2.50;;;;;;;;;;5008076;28;20029;-75
2023/02/28 06:15:31;;;;;;;3.78;2.33;;;;;;;;;;5017688;28;20499;-74
2023/02/28 06:17:57;;;;;;;5.45;1.90;;;;;;;;;;5014885;28;20033;-75
2023/02/28 06:20:23;;;;;;;3.38;2.10;;;;;;;;;;5018731;28;20040;-74
2023/02/28 06:22:50;;;;;;;4.13;1.77;;;;;;;;;;5013230;28;20077;-77
2023/02/28 06:25:16;;;;;;;5.07;2.10;;;;;;;;;;5019433;28;20037;-75
2023/02/28 06:27:42;;;;;;;6.95;1.90;;;;;;;;;;5013150;28;20076;-74
2023/02/28 06:30:10;;;;;;;7.45;2.20;;;;;;;;;;5005974;28;20073;-76
2023/02/28 06:32:36;;;;;;;5.55;2.13;;;;;;;;;;4993560;28;20387;-74
2023/02/28 06:35:02;;;;;;;3.55;2.17;;;;;;;;;;5014597;28;20057;-74
2023/02/28 06:37:28;;;;;;;4.22;2.15;;;;;;;;;;5012397;28;20038;-74
2023/02/28 06:39:55;;;;;;;5.10;2.47;;;;;;;;;;5003656;28;20045;-75
2023/02/28 06:42:24;;;;;;;4.53;2.35;;;;;;;;;;5009065;28;20029;-74
2023/02/28 06:44:50;;;;;;;4.38;2.38;;;;;;;;;;5011354;28;20176;-74
2023/02/28 06:47:16;;;;;;;8.20;2.53;;;;;;;;;;5007345;28;20046;-74
2023/02/28 06:49:41;;;;;;;6.60;3.03;;;;;;;;;;5014015;28;20030;-74
2023/02/28 06:52:07;;;;;;;4.85;2.75;;;;;;;;;;5008561;28;20059;-74
2023/02/28 06:54:32;;;;;;;5.15;2.38;;;;;;;;;;5007295;28;20376;-74
2023/02/28 06:56:58;;;;;;;5.05;2.60;;;;;;;;;;5018419;28;20508;-75
2023/02/28 06:59:25;;;;;;;6.07;2.80;;;;;;;;;;5016681;28;20046;-75
2023/02/28 07:01:50;;;;;;;14.18;3.17;;;;;;;;;;5008461;28;20030;-74
2023/02/28 07:04:16;;;;;;;9.25;2.88;;;;;;;;;;5011178;28;20572;-74
2023/02/28 07:06:41;;;;;;;5.05;2.72;;;;;;;;;;5003418;28;20537;-75
2023/02/28 07:09:06;;;;;;;5.78;2.88;;;;;;;;;;5013088;28;20489;-73
2023/02/28 07:11:32;;;;;;;9.15;3.30;;;;;;;;;;5013286;28;20381;-73
2023/02/28 07:13:58;;;;;;;7.28;3.33;;;;;;;;;;5007971;28;20482;-75
2023/02/28 07:16:24;;;;;;;4.50;2.70;;;;;;;;;;5012135;28;20069;-75
2023/02/28 07:18:49;;;;;;;7.25;3.45;;;;;;;;;;5011487;28;20022;-76
2023/02/28 07:21:15;;;;;;;5.10;3.25;;;;;;;;;;5011212;28;20045;-75
2023/02/28 07:23:41;;;;;;;4.80;3.40;;;;;;;;;;5011216;28;20044;-76
2023/02/28 07:26:12;;;;;;;9.73;3.47;;;;;;;;;;5011958;28;20034;-76
2023/02/28 07:28:38;;;;;;;5.90;2.97;;;;;;;;;;5010442;28;20555;-75
2023/02/28 07:31:07;;;;;;;8.65;3.00;;;;;;;;;;5009598;28;20037;-75
2023/02/28 07:33:33;;;;;;;7.43;3.15;;;;;;;;;;5030520;28;20048;-75
2023/02/28 07:36:08;;;;;;;8.23;3.25;;;;;;;;;;4992687;28;20064;-76
2023/02/28 07:38:35;;;;;;;5.75;3.15;;;;;;;;;;5013080;28;20391;-74
2023/02/28 07:41:04;;;;;;;5.78;3.15;;;;;;;;;;5014812;28;20038;-75
2023/02/28 07:43:30;;;;;;;8.65;3.55;;;;;;;;;;5014697;28;20038;-75
2023/02/28 07:45:55;;;;;;;6.43;3.30;;;;;;;;;;5013874;28;20038;-75
2023/02/28 07:48:21;;;;;;;6.07;3.53;;;;;;;;;;5015774;28;20044;-75
2023/02/28 07:50:55;;;;;;;7.70;3.17;;;;;;;;;;5014592;28;20129;-75
2023/02/28 07:53:20;;;;;;;5.78;3.10;;;;;;;;;;5005148;28;20061;-75
2023/02/28 07:55:46;;;;;;;6.30;3.35;;;;;;;;;;5014796;28;20038;-75
2023/02/28 07:58:11;;;;;;;6.93;3.35;;;;;;;;;;5010738;28;20033;-76
2023/02/28 08:00:36;;;;;;;9.00;3.45;;;;;;;;;;5010729;28;20084;-75
2023/02/28 08:03:02;;;;;;;6.60;3.35;;;;;;;;;;5014725;28;20425;-75
2023/02/28 08:05:27;;;;;;;5.97;3.67;;;;;;;;;;5015635;28;20478;-74
2023/02/28 08:07:53;;;;;;;8.88;3.90;;;;;;;;;;5016216;28;20035;-75
2023/02/28 08:10:18;;;;;;;6.82;3.55;;;;;;;;;;4994913;28;20041;-76
2023/02/28 08:12:44;;;;;;;7.10;4.00;;;;;;;;;;5007205;28;20084;-75
2023/02/28 08:15:10;;;;;;;9.55;5.10;;;;;;;;;;4996915;28;20061;-75
2023/02/28 08:17:35;;;;;;;12.52;6.10;;;;;;;;;;5001262;28;20034;-75
2023/02/28 08:20:01;;;;;;;14.00;6.18;;;;;;;;;;5011513;28;20069;-75
2023/02/28 08:22:26;;;;;;;12.85;5.88;;;;;;;;;;5011082;28;20080;-77
2023/02/28 08:24:52;;;;;;;15.07;5.97;;;;;;;;;;5005709;28;20402;-75
2023/02/28 08:27:17;;;;;;;16.60;6.72;;;;;;;;;;5002891;28;20124;-75
2023/02/28 08:29:43;;;;;;;11.52;5.72;;;;;;;;;;5001192;28;20030;-75
2023/02/28 08:32:08;;;;;;;10.35;5.97;;;;;;;;;;5007854;28;20045;-76
2023/02/28 08:34:34;;;;;;;12.20;6.10;;;;;;;;;;5010815;28;20034;-77
2023/02/28 08:36:59;;;;;;;14.13;6.68;;;;;;;;;;5005642;28;20062;-75
2023/02/28 08:39:24;;;;;;;12.57;5.85;;;;;;;;;;5002315;28;20117;-75
2023/02/28 08:41:50;;;;;;;10.18;5.45;;;;;;;;;;5007987;28;20471;-75
2023/02/28 08:44:15;;;;;;;11.13;5.82;;;;;;;;;;5011857;28;20038;-76
2023/02/28 08:46:41;;;;;;;11.30;6.13;;;;;;;;;;5012176;28;20046;-75
2023/02/28 08:49:07;;;;;;;11.85;5.57;;;;;;;;;;5011772;28;20516;-75
2023/02/28 08:51:32;;;;;;;9.85;5.70;;;;;;;;;;4997019;28;20034;-75
2023/02/28 08:53:59;;;;;;;10.93;6.03;;;;;;;;;;5010224;28;20105;-75
2023/02/28 08:56:26;;;;;;;11.35;5.93;;;;;;;;;;5010577;28;20121;-77
2023/02/28 08:58:51;;;;;;;11.43;5.95;;;;;;;;;;5010399;28;20079;-75
2023/02/28 09:01:23;;;;;;;10.68;5.68;;;;;;;;;;5000389;28;20038;-74
2023/02/28 09:03:49;;;;;;;10.68;5.93;;;;;;;;;;5026025;28;20037;-74
2023/02/28 09:06:16;;;;;;;11.10;6.07;;;;;;;;;;5009580;28;20469;-76
2023/02/28 09:08:42;;;;;;;10.63;5.38;;;;;;;;;;5010909;28;20100;-75
2023/02/28 09:11:08;;;;;;;11.95;5.35;;;;;;;;;;5004282;28;20405;-77
2023/02/28 09:13:34;;;;;;;13.32;6.25;;;;;;;;;;5001816;28;20022;-75
2023/02/28 09:16:01;;;;;;;9.18;5.72;;;;;;;;;;5004008;28;20482;-75
2023/02/28 09:18:27;;;;;;;8.50;4.93;;;;;;;;;;5002887;28;20458;-75
2023/02/28 09:20:52;;;;;;;9.95;5.50;;;;;;;;;;5003144;28;20037;-76
2023/02/28 09:23:18;;;;;;;11.35;5.28;;;;;;;;;;5013837;28;20074;-78
2023/02/28 09:25:52;;;;;;;9.10;5.47;;;;;;;;;;5017980;28;20060;-75
2023/02/28 09:28:17;;;;;;;;;;;;;;;;;;5027303;28;20041;-75
2023/02/28 09:30:48;;;;;;;10.73;5.53;;;;;;;;;;5016161;28;19921;-76
2023/02/28 09:33:14;;;;;;;10.23;5.40;;;;;;;;;;5007599;28;20049;-76
2023/02/28 09:35:39;;;;;;;9.82;6.28;;;;;;;;;;4998554;28;20038;-76
2023/02/28 09:38:05;;;;;;;12.07;5.43;;;;;;;;;;5010768;28;20042;-75
2023/02/28 09:40:31;;;;;;;9.27;5.25;;;;;;;;;;5009603;28;20133;-77
2023/02/28 09:42:58;;;;;;;10.80;5.97;;;;;;;;;;5000364;28;20112;-76
2023/02/28 09:45:32;;;;;;;12.52;5.97;;;;;;;;;;5009566;28;20033;-76
2023/02/28 09:48:02;;;;;;;11.43;6.10;;;;;;;;;;5008240;28;20050;-75
2023/02/28 09:50:35;;;;;;;12.07;6.45;;;;;;;;;;5019724;28;20073;-76
2023/02/28 09:53:13;;;;;;;12.27;5.82;;;;;;;;;;5010112;28;20512;-75
2023/02/28 09:55:58;;;;;;;9.85;5.90;;;;;;;;;;5008865;28;20041;-75
2023/02/28 09:58:56;;;;;;;9.95;5.30;;;;;;;;;;4996048;28;20042;-76
2023/02/28 10:01:39;;;;;;;10.52;5.72;;;;;;;;;;4997463;28;20390;-75
2023/02/28 10:04:24;;;;;;;9.90;5.50;;;;;;;;;;4999767;28;20083;-75
2023/02/28 10:06:51;;;;;;;9.38;5.10;;;;;;;;;;5009454;28;20504;-77
2023/02/28 10:09:29;;;;;;;10.40;5.03;;;;;;;;;;5004750;28;20049;-75
2023/02/28 10:11:57;;;;;;;11.35;6.20;;;;;;;;;;5008064;28;20034;-75
2023/02/28 10:14:25;;;;;;;9.02;5.22;;;;;;;;;;5008503;28;20470;-75
2023/02/28 10:16:56;;;;;;;12.18;6.60;;;;;;;;;;5008268;28;20030;-76
2023/02/28 10:19:40;;;;;;;10.73;6.47;;;;;;;;;;5006864;28;20038;-75
2023/02/28 10:22:12;;;;;;;14.48;6.70;;;;;;;;;;5004376;28;20419;-75
2023/02/28 10:25:16;;;;;;;10.60;6.50;;;;;;;;;;5004525;28;20100;-75
2023/02/28 10:27:42;;;;;;;11.50;6.57;;;;;;;;;;4986842;28;20441;-77
2023/02/28 10:30:09;;;;;;;11.45;6.68;;;;;;;;;;5000304;28;20096;-75
2023/02/28 10:32:35;;;;;;;11.02;6.20;;;;;;;;;;5007175;28;20049;-75
2023/02/28 10:35:07;;;;;;;10.77;6.20;;;;;;;;;;4999293;28;20038;-75
2023/02/28 10:37:37;;;;;;;12.48;5.50;;;;;;;;;;5003153;28;20143;-75
2023/02/28 10:40:06;;;;;;;8.32;5.13;;;;;;;;;;4999558;28;20046;-75
2023/02/28 10:42:32;;;;;;;8.25;4.78;;;;;;;;;;5014991;28;20026;-75
2023/02/28 10:45:10;;;;;;;7.93;4.63;;;;;;;;;;5001092;28;20050;-74
2023/02/28 10:48:01;;;;;;;8.35;5.18;;;;;;;;;;5005828;28;20109;-75
2023/02/28 10:50:35;;;;;;;7.88;4.43;;;;;;;;;;5004749;28;20528;-75
2023/02/28 10:53:31;;;;;;;5.97;3.88;;;;;;;;;;5008593;28;20062;-76
2023/02/28 10:56:14;;;;;;;7.13;4.40;;;;;;;;;;5005514;28;20064;-75
2023/02/28 10:58:59;;;;;;;7.20;4.30;;;;;;;;;;5015319;28;20034;-75
2023/02/28 11:01:40;;;;;;;6.55;3.90;;;;;;;;;;5007499;28;20038;-75
2023/02/28 11:04:35;;;;;;;6.25;3.67;;;;;;;;;;5009924;28;20116;-75
2023/02/28 11:07:21;;;;;;;6.88;4.10;;;;;;;;;;5010750;28;20034;-75
2023/02/28 11:09:49;;;;;;;5.70;3.47;;;;;;;;;;5005516;28;20056;-75
2023/02/28 11:12:23;;;;;;;6.93;3.88;;;;;;;;;;5025950;28;20057;-75
2023/02/28 11:14:52;;;;;;;6.20;3.70;;;;;;;;;;5004418;28;20959;-75
2023/02/28 11:17:23;;;;;;;5.70;3.40;;;;;;;;;;5014219;28;20382;-75
2023/02/28 11:19:52;;;;;;;6.13;3.50;;;;;;;;;;5001408;28;20117;-75
2023/02/28 11:22:21;;;;;;;5.07;3.20;;;;;;;;;;5012905;28;20450;-76
2023/02/28 11:24:50;;;;;;;4.75;2.83;;;;;;;;;;5028000;28;20092;-75
2023/02/28 11:27:39;;;;;;;4.63;2.75;;;;;;;;;;5015835;28;20056;-76
2023/02/28 11:30:23;;;;;;;3.85;2.53;;;;;;;;;;5009088;28;20030;-75
2023/02/28 11:32:48;;;;;;;;;;;;;;;;;;5010691;28;20041;-75
2023/02/28 11:35:19;;;;;;;6.40;3.65;;;;;;;;;;5027766;28;19924;-75
2023/02/28 11:37:45;;;;;;;6.43;3.58;;;;;;;;;;5014869;28;20037;-76
2023/02/28 11:40:22;;;;;;;5.47;3.38;;;;;;;;;;5001173;28;20033;-76
2023/02/28 11:43:05;;;;;;;5.25;3.00;;;;;;;;;;5007549;28;20078;-75
2023/02/28 11:45:58;;;;;;;5.63;3.40;;;;;;;;;;5011536;28;20037;-75
2023/02/28 11:48:53;;;;;;;4.38;2.70;;;;;;;;;;5003392;28;20425;-76
2023/02/28 11:51:23;;;;;;;5.45;2.85;;;;;;;;;;4993990;28;20431;-76
2023/02/28 11:53:58;;;;;;;4.63;2.63;;;;;;;;;;5012581;28;20030;-75
2023/02/28 11:56:36;;;;;;;4.95;2.95;;;;;;;;;;5012349;28;20037;-75
2023/02/28 11:59:20;;;;;;;5.03;3.20;;;;;;;;;;5009604;28;20068;-75
2023/02/28 12:02:07;;;;;;;8.65;2.78;;;;;;;;;;5023236;28;20036;-75
2023/02/28 12:04:51;;;;;;;5.13;2.58;;;;;;;;;;5017523;28;20030;-75
2023/02/28 12:07:27;;;;;;;6.38;2.90;;;;;;;;;;4997062;28;20105;-75
2023/02/28 12:10:26;;;;;;;5.80;2.88;;;;;;;;;;5027231;28;20033;-75
2023/02/28 12:13:03;;;;;;;3.90;2.60;;;;;;;;;;5012261;28;20034;-75
2023/02/28 12:15:59;;;;;;;5.93;2.65;;;;;;;;;;5026883;28;20046;-75
2023/02/28 12:18:24;;;;;;;3.95;2.50;;;;;;;;;;5000927;28;20029;-75
2023/02/28 12:20:58;;;;;;;4.35;2.40;;;;;;;;;;5011820;28;20046;-75
2023/02/28 12:23:45;;;;;;;6.68;2.78;;;;;;;;;;4998876;28;20022;-75
2023/02/28 12:26:13;;;;;;;5.32;2.42;;;;;;;;;;5011209;28;20140;-75
2023/02/28 12:28:46;;;;;;;5.25;2.60;;;;;;;;;;5011670;28;20030;-74
2023/02/28 12:31:24;;;;;;;4.38;2.65;;;;;;;;;;4996730;28;20125;-75
2023/02/28 12:33:56;;;;;;;4.82;2.95;;;;;;;;;;4998338;28;20041;-75
2023/02/28 12:36:23;;;;;;;4.47;2.60;;;;;;;;;;5013644;28;20115;-75
2023/02/28 12:38:54;;;;;;;3.80;2.42;;;;;;;;;;5007926;28;20479;-75
2023/02/28 12:41:24;;;;;;;4.38;2.88;;;;;;;;;;5009029;28;20049;-75
2023/02/28 12:44:17;;;;;;;4.85;2.72;;;;;;;;;;4997921;28;20045;-75
2023/02/28 12:46:48;;;;;;;4.80;2.80;;;;;;;;;;5007835;28;20049;-75
2023/02/28 12:49:37;;;;;;;4.88;2.97;;;;;;;;;;5025959;28;20046;-75
2023/02/28 12:52:03;;;;;;;4.63;2.58;;;;;;;;;;5002837;28;20061;-76
2023/02/28 12:54:38;;;;;;;4.75;2.67;;;;;;;;;;5007096;28;21052;-76
2023/02/28 12:57:13;;;;;;;4.22;2.38;;;;;;;;;;4997434;28;20045;-75
2023/02/28 12:59:49;;;;;;;3.75;2.40;;;;;;;;;;5022763;28;20492;-75
2023/02/28 13:02:15;;;;;;;4.78;2.28;;;;;;;;;;5008376;28;20038;-77
2023/02/28 13:04:52;;;;;;;4.53;2.53;;;;;;;;;;4997303;28;20061;-76
2023/02/28 13:07:43;;;;;;;4.55;2.58;;;;;;;;;;5008763;28;20049;-77
2023/02/28 13:10:10;;;;;;;4.18;2.72;;;;;;;;;;5015848;28;20041;-76
2023/02/28 13:12:36;;;;;;;5.90;3.20;;;;;;;;;;5015857;28;20038;-75
2023/02/28 13:15:23;;;;;;;6.70;3.20;;;;;;;;;;5025236;28;20113;-76
2023/02/28 13:17:51;;;;;;;10.30;3.70;;;;;;;;;;5017506;28;20121;-75
2023/02/28 13:20:23;;;;;;;7.00;3.58;;;;;;;;;;5009893;28;20038;-75
2023/02/28 13:22:50;;;;;;;4.85;2.80;;;;;;;;;;5016292;28;20042;-75
2023/02/28 13:25:42;;;;;;;4.40;2.53;;;;;;;;;;5006943;28;20592;-75
2023/02/28 13:28:14;;;;;;;6.35;3.20;;;;;;;;;;5004670;28;20041;-75
2023/02/28 13:30:51;;;;;;;6.88;3.17;;;;;;;;;;5000005;28;20116;-76
2023/02/28 13:33:27;;;;;;;4.43;2.50;;;;;;;;;;5012341;28;20245;-75
2023/02/28 13:36:14;;;;;;;5.13;2.85;;;;;;;;;;5002863;28;20456;-75
2023/02/28 13:38:42;;;;;;;4.07;2.42;;;;;;;;;;4999293;28;20068;-77
2023/02/28 13:41:35;;;;;;;3.75;2.20;;;;;;;;;;5002543;28;20046;-75
2023/02/28 13:44:04;;;;;;;3.50;2.03;;;;;;;;;;5002369;28;20409;-76
2023/02/28 13:46:30;;;;;;;4.30;2.28;;;;;;;;;;5001720;28;20586;-75
2023/02/28 13:48:55;;;;;;;4.25;2.30;;;;;;;;;;5010434;28;20109;-75
2023/02/28 13:51:42;;;;;;;4.78;2.20;;;;;;;;;;5009846;28;20038;-74
2023/02/28 13:54:44;;;;;;;4.55;2.30;;;;;;;;;;4996426;28;20921;-75
2023/02/28 13:57:34;;;;;;;3.53;1.63;;;;;;;;;;4992021;28;20050;-75
2023/02/28 14:00:26;;;;;;;3.90;2.20;;;;;;;;;;5001646;28;20038;-76
2023/02/28 14:03:23;;;;;;;4.50;2.17;;;;;;;;;;5011175;28;20052;-75
2023/02/28 14:06:08;;;;;;;2.63;1.90;;;;;;;;;;5007639;28;20053;-75
2023/02/28 14:08:34;;;;;;;3.03;1.80;;;;;;;;;;5009354;28;20117;-75
2023/02/28 14:11:05;;;;;;;3.45;2.10;;;;;;;;;;5016244;28;20176;-75
2023/02/28 14:13:46;;;;;;;2.85;1.77;;;;;;;;;;5026069;28;20030;-77
2023/02/28 14:16:26;;;;;;;3.28;1.80;;;;;;;;;;5003652;28;20050;-75
2023/02/28 14:19:00;;;;;;;4.38;2.20;;;;;;;;;;5000000;28;20474;-76
2023/02/28 14:21:29;;;;;;;3.63;2.03;;;;;;;;;;4996627;28;20049;-75
2023/02/28 14:24:31;;;;;;;3.60;1.98;;;;;;;;;;4999293;28;20482;-75
2023/02/28 14:27:12;;;;;;;3.88;1.83;;;;;;;;;;4991495;28;20041;-75
2023/02/28 14:29:50;;;;;;;7.55;1.98;;;;;;;;;;5006879;28;20038;-76
2023/02/28 14:32:27;;;;;;;3.25;1.75;;;;;;;;;;5001865;28;20034;-76
2023/02/28 14:35:11;;;;;;;4.00;1.92;;;;;;;;;;5008645;28;20489;-75
2023/02/28 14:37:39;;;;;;;3.67;1.75;;;;;;;;;;5008845;28;20038;-75
2023/02/28 14:40:12;;;;;;;3.58;1.77;;;;;;;;;;5023220;28;20060;-75
2023/02/28 14:42:41;;;;;;;3.28;1.83;;;;;;;;;;5001587;28;20478;-75
2023/02/28 14:45:18;;;;;;;2.50;1.42;;;;;;;;;;5006570;28;20125;-75
2023/02/28 14:47:43;;;;;;;3.55;1.73;;;;;;;;;;4997916;28;20038;-75
2023/02/28 14:50:22;;;;;;;3.03;1.63;;;;;;;;;;5010756;28;20751;-76
2023/02/28 14:52:52;;;;;;;2.85;1.67;;;;;;;;;;5027741;28;20050;-75
2023/02/28 14:55:18;;;;;;;2.88;1.60;;;;;;;;;;4985606;28;20045;-75
2023/02/28 14:57:51;;;;;;;5.00;1.88;;;;;;;;;;5003397;28;20435;-76
2023/02/28 15:00:22;;;;;;;3.30;1.90;;;;;;;;;;4998318;28;20050;-77
2023/02/28 15:02:48;;;;;;;3.17;1.77;;;;;;;;;;5007333;28;20073;-76
2023/02/28 15:05:16;;;;;;;6.30;2.53;;;;;;;;;;5000046;28;20741;-75
2023/02/28 15:07:42;;;;;;;3.63;2.10;;;;;;;;;;5015872;28;20069;-75
2023/02/28 15:10:20;;;;;;;4.25;2.15;;;;;;;;;;5024200;28;20046;-75